Terminal Aerodrome Forecast
Issued by NWS Shreveport, LA

Home | Current Version | Previous Version | Text Only | Print | Product List | Glossary On
Versions: 1 2 3 4 5 6 7 8 9 10 11 12 13 14 15
000
FTUS44 KSHV 021700
TAFSHV
TAF
KSHV 021738Z 0218/0318 VRB04KT P6SM VCTS BKN040CB
     FM022000 18008KT P6SM VCSH BKN045
      TEMPO 0220/0223 VRB15G25KT 3SM TSRA BKN025 OVC045CB
     FM030000 17008KT P6SM FEW060 SCT250
     FM030800 16005KT P6SM BKN012
     FM031500 19008KT P6SM BKN024
     FM031600 21010KT P6SM BKN035=

USA.gov is the U.S. government's official web portal to all federal, state and local government web resources and services.